sensor_id;sensor_type;location;lat;lon;timestamp;temperature;humidity
19829;DHT22;10075;50.924;4.396;2023-06-14T00:00:48;21.50;79.30
19829;DHT22;10075;50.924;4.396;2023-06-14T00:03:15;21.40;79.90
19829;DHT22;10075;50.924;4.396;2023-06-14T00:05:43;21.30;80.80
19829;DHT22;10075;50.924;4.396;2023-06-14T00:08:12;21.10;81.00
19829;DHT22;10075;50.924;4.396;2023-06-14T00:10:39;21.10;79.60
19829;DHT22;10075;50.924;4.396;2023-06-14T00:13:07;21.10;79.70
19829;DHT22;10075;50.924;4.396;2023-06-14T00:15:36;21.20;79.60
19829;DHT22;10075;50.924;4.396;2023-06-14T00:18:03;21.20;80.20
19829;DHT22;10075;50.924;4.396;2023-06-14T00:20:32;21.20;79.30
19829;DHT22;10075;50.924;4.396;2023-06-14T00:22:59;21.20;79.10
19829;DHT22;10075;50.924;4.396;2023-06-14T00:25:27;21.20;77.10
19829;DHT22;10075;50.924;4.396;2023-06-14T00:27:54;21.30;76.10
19829;DHT22;10075;50.924;4.396;2023-06-14T00:30:21;21.40;75.80
19829;DHT22;10075;50.924;4.396;2023-06-14T00:32:50;21.40;75.40
19829;DHT22;10075;50.924;4.396;2023-06-14T00:35:17;21.50;74.20
19829;DHT22;10075;50.924;4.396;2023-06-14T00:37:44;21.60;73.70
19829;DHT22;10075;50.924;4.396;2023-06-14T00:40:11;21.60;73.80
19829;DHT22;10075;50.924;4.396;2023-06-14T00:42:38;21.50;74.60
19829;DHT22;10075;50.924;4.396;2023-06-14T00:45:06;21.50;75.70
19829;DHT22;10075;50.924;4.396;2023-06-14T00:47:33;21.50;75.40
19829;DHT22;10075;50.924;4.396;2023-06-14T00:50:02;21.50;76.30
19829;DHT22;10075;50.924;4.396;2023-06-14T00:52:29;21.50;75.60
19829;DHT22;10075;50.924;4.396;2023-06-14T00:54:58;21.40;76.70
19829;DHT22;10075;50.924;4.396;2023-06-14T00:57:25;21.30;76.30
19829;DHT22;10075;50.924;4.396;2023-06-14T00:59:52;21.30;76.50
19829;DHT22;10075;50.924;4.396;2023-06-14T01:02:21;21.20;75.90
19829;DHT22;10075;50.924;4.396;2023-06-14T01:04:48;21.30;74.90
19829;DHT22;10075;50.924;4.396;2023-06-14T01:07:25;21.30;74.00
19829;DHT22;10075;50.924;4.396;2023-06-14T01:10:09;21.40;74.10
19829;DHT22;10075;50.924;4.396;2023-06-14T01:12:48;21.40;74.00
19829;DHT22;10075;50.924;4.396;2023-06-14T01:15:17;21.40;74.20
19829;DHT22;10075;50.924;4.396;2023-06-14T01:17:45;21.20;74.40
19829;DHT22;10075;50.924;4.396;2023-06-14T01:20:13;21.20;74.90
19829;DHT22;10075;50.924;4.396;2023-06-14T01:22:50;21.10;74.90
19829;DHT22;10075;50.924;4.396;2023-06-14T01:25:18;21.20;74.30
19829;DHT22;10075;50.924;4.396;2023-06-14T01:27:47;21.10;74.30
19829;DHT22;10075;50.924;4.396;2023-06-14T01:30:15;21.00;74.90
19829;DHT22;10075;50.924;4.396;2023-06-14T01:32:44;21.00;75.20
19829;DHT22;10075;50.924;4.396;2023-06-14T01:35:12;20.90;75.80
19829;DHT22;10075;50.924;4.396;2023-06-14T01:37:39;20.80;75.70
19829;DHT22;10075;50.924;4.396;2023-06-14T01:40:10;20.90;75.40
19829;DHT22;10075;50.924;4.396;2023-06-14T01:42:38;20.90;75.20
19829;DHT22;10075;50.924;4.396;2023-06-14T01:45:06;20.80;75.40
19829;DHT22;10075;50.924;4.396;2023-06-14T01:47:34;20.70;76.00
19829;DHT22;10075;50.924;4.396;2023-06-14T01:50:02;20.60;76.50
19829;DHT22;10075;50.924;4.396;2023-06-14T01:52:29;20.60;76.80
19829;DHT22;10075;50.924;4.396;2023-06-14T01:54:56;20.60;76.20
19829;DHT22;10075;50.924;4.396;2023-06-14T01:57:25;20.60;75.90
19829;DHT22;10075;50.924;4.396;2023-06-14T01:59:53;20.70;76.00
19829;DHT22;10075;50.924;4.396;2023-06-14T02:02:20;20.60;76.50
19829;DHT22;10075;50.924;4.396;2023-06-14T02:04:47;20.60;76.90
19829;DHT22;10075;50.924;4.396;2023-06-14T02:07:14;20.60;76.60
19829;DHT22;10075;50.924;4.396;2023-06-14T02:09:41;20.50;76.80
19829;DHT22;10075;50.924;4.396;2023-06-14T02:12:09;20.50;77.10
19829;DHT22;10075;50.924;4.396;2023-06-14T02:14:37;20.50;77.20
19829;DHT22;10075;50.924;4.396;2023-06-14T02:17:05;20.50;77.00
19829;DHT22;10075;50.924;4.396;2023-06-14T02:19:32;20.40;77.20
19829;DHT22;10075;50.924;4.396;2023-06-14T02:21:59;20.40;77.80
19829;DHT22;10075;50.924;4.396;2023-06-14T02:24:27;20.30;77.60
19829;DHT22;10075;50.924;4.396;2023-06-14T02:26:53;20.30;77.60
19829;DHT22;10075;50.924;4.396;2023-06-14T02:29:21;20.30;77.90
19829;DHT22;10075;50.924;4.396;2023-06-14T02:31:50;20.30;77.80
19829;DHT22;10075;50.924;4.396;2023-06-14T02:34:17;20.30;77.50
19829;DHT22;10075;50.924;4.396;2023-06-14T02:36:45;20.30;77.60
19829;DHT22;10075;50.924;4.396;2023-06-14T02:39:13;20.30;78.00
19829;DHT22;10075;50.924;4.396;2023-06-14T02:41:40;20.20;78.40
19829;DHT22;10075;50.924;4.396;2023-06-14T02:44:07;20.10;78.70
19829;DHT22;10075;50.924;4.396;2023-06-14T02:46:35;20.10;78.90
19829;DHT22;10075;50.924;4.396;2023-06-14T02:49:03;20.10;78.70
19829;DHT22;10075;50.924;4.396;2023-06-14T02:51:30;20.20;78.30
19829;DHT22;10075;50.924;4.396;2023-06-14T02:53:57;20.20;78.10
19829;DHT22;10075;50.924;4.396;2023-06-14T02:56:24;20.10;78.40
19829;DHT22;10075;50.924;4.396;2023-06-14T02:58:51;20.00;78.80
19829;DHT22;10075;50.924;4.396;2023-06-14T03:01:18;20.00;79.30
19829;DHT22;10075;50.924;4.396;2023-06-14T03:03:46;19.90;79.60
19829;DHT22;10075;50.924;4.396;2023-06-14T03:06:14;19.90;79.90
19829;DHT22;10075;50.924;4.396;2023-06-14T03:08:42;19.80;80.10
19829;DHT22;10075;50.924;4.396;2023-06-14T03:11:09;19.80;79.90
19829;DHT22;10075;50.924;4.396;2023-06-14T03:13:36;19.80;79.80
19829;DHT22;10075;50.924;4.396;2023-06-14T03:16:04;19.80;79.90
19829;DHT22;10075;50.924;4.396;2023-06-14T03:18:32;19.80;80.00
19829;DHT22;10075;50.924;4.396;2023-06-14T03:21:01;19.70;80.10
19829;DHT22;10075;50.924;4.396;2023-06-14T03:23:29;19.70;80.20
19829;DHT22;10075;50.924;4.396;2023-06-14T03:25:56;19.70;80.40
19829;DHT22;10075;50.924;4.396;2023-06-14T03:28:24;19.60;80.60
19829;DHT22;10075;50.924;4.396;2023-06-14T03:30:51;19.60;80.90
19829;DHT22;10075;50.924;4.396;2023-06-14T03:33:18;19.50;81.20
19829;DHT22;10075;50.924;4.396;2023-06-14T03:35:46;19.50;81.00
19829;DHT22;10075;50.924;4.396;2023-06-14T03:38:13;19.50;81.20
19829;DHT22;10075;50.924;4.396;2023-06-14T03:40:42;19.50;82.30
19829;DHT22;10075;50.924;4.396;2023-06-14T03:43:10;19.50;81.50
19829;DHT22;10075;50.924;4.396;2023-06-14T03:45:37;19.50;81.50
19829;DHT22;10075;50.924;4.396;2023-06-14T03:48:04;19.60;81.30
19829;DHT22;10075;50.924;4.396;2023-06-14T03:50:32;19.50;81.40
19829;DHT22;10075;50.924;4.396;2023-06-14T03:52:59;19.50;81.70
19829;DHT22;10075;50.924;4.396;2023-06-14T03:55:27;19.50;81.60
19829;DHT22;10075;50.924;4.396;2023-06-14T03:57:58;19.40;82.30
19829;DHT22;10075;50.924;4.396;2023-06-14T04:00:25;19.40;82.60
19829;DHT22;10075;50.924;4.396;2023-06-14T04:02:52;19.40;82.50
19829;DHT22;10075;50.924;4.396;2023-06-14T04:05:20;19.40;82.20
19829;DHT22;10075;50.924;4.396;2023-06-14T04:07:47;19.40;82.30
19829;DHT22;10075;50.924;4.396;2023-06-14T04:10:15;19.40;82.00
19829;DHT22;10075;50.924;4.396;2023-06-14T04:12:42;19.40;82.00
19829;DHT22;10075;50.924;4.396;2023-06-14T04:15:11;19.50;81.70
19829;DHT22;10075;50.924;4.396;2023-06-14T04:17:39;19.50;81.50
19829;DHT22;10075;50.924;4.396;2023-06-14T04:20:07;19.50;81.40
19829;DHT22;10075;50.924;4.396;2023-06-14T04:22:35;19.50;81.40
19829;DHT22;10075;50.924;4.396;2023-06-14T04:25:03;19.50;81.50
19829;DHT22;10075;50.924;4.396;2023-06-14T04:27:31;19.50;81.50
19829;DHT22;10075;50.924;4.396;2023-06-14T04:30:01;19.50;81.20
19829;DHT22;10075;50.924;4.396;2023-06-14T04:32:30;19.50;81.40
19829;DHT22;10075;50.924;4.396;2023-06-14T04:34:59;19.50;81.60
19829;DHT22;10075;50.924;4.396;2023-06-14T04:37:27;19.60;81.30
19829;DHT22;10075;50.924;4.396;2023-06-14T04:39:56;19.50;81.20
19829;DHT22;10075;50.924;4.396;2023-06-14T04:42:23;19.50;81.80
19829;DHT22;10075;50.924;4.396;2023-06-14T04:44:55;19.50;81.90
19829;DHT22;10075;50.924;4.396;2023-06-14T04:47:22;19.50;81.60
19829;DHT22;10075;50.924;4.396;2023-06-14T04:49:52;19.60;80.90
19829;DHT22;10075;50.924;4.396;2023-06-14T04:52:19;19.70;80.30
19829;DHT22;10075;50.924;4.396;2023-06-14T04:54:46;19.90;79.90
19829;DHT22;10075;50.924;4.396;2023-06-14T04:57:14;19.80;80.30
19829;DHT22;10075;50.924;4.396;2023-06-14T04:59:42;19.80;80.40
19829;DHT22;10075;50.924;4.396;2023-06-14T05:02:10;19.90;80.20
19829;DHT22;10075;50.924;4.396;2023-06-14T05:04:37;20.00;79.50
19829;DHT22;10075;50.924;4.396;2023-06-14T05:07:08;20.00;79.70
19829;DHT22;10075;50.924;4.396;2023-06-14T05:09:36;20.00;79.10
19829;DHT22;10075;50.924;4.396;2023-06-14T05:12:04;20.10;78.40
19829;DHT22;10075;50.924;4.396;2023-06-14T05:14:33;20.20;78.40
19829;DHT22;10075;50.924;4.396;2023-06-14T05:17:00;20.20;78.10
19829;DHT22;10075;50.924;4.396;2023-06-14T05:19:28;20.20;78.30
19829;DHT22;10075;50.924;4.396;2023-06-14T05:21:55;20.20;78.30
19829;DHT22;10075;50.924;4.396;2023-06-14T05:24:23;20.30;78.40
19829;DHT22;10075;50.924;4.396;2023-06-14T05:26:51;20.40;78.40
19829;DHT22;10075;50.924;4.396;2023-06-14T05:29:18;20.50;78.30
19829;DHT22;10075;50.924;4.396;2023-06-14T05:31:44;20.50;77.80
19829;DHT22;10075;50.924;4.396;2023-06-14T05:34:11;20.50;78.00
19829;DHT22;10075;50.924;4.396;2023-06-14T05:36:38;20.70;78.00
19829;DHT22;10075;50.924;4.396;2023-06-14T05:39:06;20.80;77.60
19829;DHT22;10075;50.924;4.396;2023-06-14T05:41:35;20.90;77.00
19829;DHT22;10075;50.924;4.396;2023-06-14T05:44:02;21.00;76.90
19829;DHT22;10075;50.924;4.396;2023-06-14T05:46:29;21.10;77.00
19829;DHT22;10075;50.924;4.396;2023-06-14T05:48:56;21.20;76.20
19829;DHT22;10075;50.924;4.396;2023-06-14T05:51:23;21.30;75.60
19829;DHT22;10075;50.924;4.396;2023-06-14T05:53:52;21.40;75.70
19829;DHT22;10075;50.924;4.396;2023-06-14T05:56:20;21.40;75.60
19829;DHT22;10075;50.924;4.396;2023-06-14T05:58:48;21.60;75.40
19829;DHT22;10075;50.924;4.396;2023-06-14T06:01:16;21.60;75.40
19829;DHT22;10075;50.924;4.396;2023-06-14T06:03:43;21.70;75.20
19829;DHT22;10075;50.924;4.396;2023-06-14T06:06:12;21.70;75.70
19829;DHT22;10075;50.924;4.396;2023-06-14T06:08:39;21.80;75.60
19829;DHT22;10075;50.924;4.396;2023-06-14T06:11:06;21.80;75.20
19829;DHT22;10075;50.924;4.396;2023-06-14T06:13:33;21.90;75.20
19829;DHT22;10075;50.924;4.396;2023-06-14T06:16:02;21.90;75.20
19829;DHT22;10075;50.924;4.396;2023-06-14T06:18:29;21.90;75.40
19829;DHT22;10075;50.924;4.396;2023-06-14T06:20:56;21.90;76.40
19829;DHT22;10075;50.924;4.396;2023-06-14T06:23:23;22.00;75.40
19829;DHT22;10075;50.924;4.396;2023-06-14T06:25:50;22.10;75.40
19829;DHT22;10075;50.924;4.396;2023-06-14T06:28:17;22.20;75.00
19829;DHT22;10075;50.924;4.396;2023-06-14T06:30:44;22.20;74.70
19829;DHT22;10075;50.924;4.396;2023-06-14T06:33:13;22.20;74.90
19829;DHT22;10075;50.924;4.396;2023-06-14T06:35:40;22.30;74.90
19829;DHT22;10075;50.924;4.396;2023-06-14T06:38:07;22.40;74.80
19829;DHT22;10075;50.924;4.396;2023-06-14T06:40:35;22.40;74.50
19829;DHT22;10075;50.924;4.396;2023-06-14T06:43:02;22.50;74.80
19829;DHT22;10075;50.924;4.396;2023-06-14T06:45:29;22.60;75.10
19829;DHT22;10075;50.924;4.396;2023-06-14T06:47:56;22.60;75.00
19829;DHT22;10075;50.924;4.396;2023-06-14T06:50:25;22.60;74.50
19829;DHT22;10075;50.924;4.396;2023-06-14T06:52:52;22.70;74.20
19829;DHT22;10075;50.924;4.396;2023-06-14T06:55:20;22.80;74.30
19829;DHT22;10075;50.924;4.396;2023-06-14T06:57:47;22.80;74.40
19829;DHT22;10075;50.924;4.396;2023-06-14T07:00:16;22.80;74.40
19829;DHT22;10075;50.924;4.396;2023-06-14T07:02:43;22.80;74.40
19829;DHT22;10075;50.924;4.396;2023-06-14T07:05:10;22.90;74.40
19829;DHT22;10075;50.924;4.396;2023-06-14T07:07:39;23.00;74.50
19829;DHT22;10075;50.924;4.396;2023-06-14T07:10:07;23.00;73.80
19829;DHT22;10075;50.924;4.396;2023-06-14T07:12:34;23.20;74.30
19829;DHT22;10075;50.924;4.396;2023-06-14T07:15:06;23.20;73.90
19829;DHT22;10075;50.924;4.396;2023-06-14T07:17:34;23.20;73.60
19829;DHT22;10075;50.924;4.396;2023-06-14T07:20:03;23.30;73.20
19829;DHT22;10075;50.924;4.396;2023-06-14T07:22:40;23.40;73.30
19829;DHT22;10075;50.924;4.396;2023-06-14T07:25:08;23.40;72.80
19829;DHT22;10075;50.924;4.396;2023-06-14T07:27:38;23.40;72.40
19829;DHT22;10075;50.924;4.396;2023-06-14T07:30:06;23.50;72.70
19829;DHT22;10075;50.924;4.396;2023-06-14T07:32:33;23.50;71.40
19829;DHT22;10075;50.924;4.396;2023-06-14T07:35:00;23.60;71.30
19829;DHT22;10075;50.924;4.396;2023-06-14T07:37:28;23.60;71.70
19829;DHT22;10075;50.924;4.396;2023-06-14T07:39:57;23.60;71.70
19829;DHT22;10075;50.924;4.396;2023-06-14T07:42:24;23.70;71.00
19829;DHT22;10075;50.924;4.396;2023-06-14T07:44:51;23.80;71.20
19829;DHT22;10075;50.924;4.396;2023-06-14T07:47:19;23.80;70.80
19829;DHT22;10075;50.924;4.396;2023-06-14T07:49:46;23.90;70.70
19829;DHT22;10075;50.924;4.396;2023-06-14T07:52:13;23.90;70.30
19829;DHT22;10075;50.924;4.396;2023-06-14T07:54:40;24.00;70.50
19829;DHT22;10075;50.924;4.396;2023-06-14T07:57:08;24.00;70.20
19829;DHT22;10075;50.924;4.396;2023-06-14T07:59:35;24.20;70.40
19829;DHT22;10075;50.924;4.396;2023-06-14T08:02:03;24.20;69.50
19829;DHT22;10075;50.924;4.396;2023-06-14T08:04:32;24.40;69.00
19829;DHT22;10075;50.924;4.396;2023-06-14T08:06:59;24.50;68.50
19829;DHT22;10075;50.924;4.396;2023-06-14T08:09:26;24.70;68.90
19829;DHT22;10075;50.924;4.396;2023-06-14T08:11:54;24.80;69.00
19829;DHT22;10075;50.924;4.396;2023-06-14T08:14:23;24.90;68.40
19829;DHT22;10075;50.924;4.396;2023-06-14T08:16:50;25.00;67.30
19829;DHT22;10075;50.924;4.396;2023-06-14T08:19:17;25.00;67.50
19829;DHT22;10075;50.924;4.396;2023-06-14T08:21:44;25.00;67.80
19829;DHT22;10075;50.924;4.396;2023-06-14T08:24:12;25.20;66.90
19829;DHT22;10075;50.924;4.396;2023-06-14T08:26:39;25.30;67.60
19829;DHT22;10075;50.924;4.396;2023-06-14T08:29:06;25.40;68.40
19829;DHT22;10075;50.924;4.396;2023-06-14T08:31:35;25.50;67.50
19829;DHT22;10075;50.924;4.396;2023-06-14T08:34:02;25.50;67.30
19829;DHT22;10075;50.924;4.396;2023-06-14T08:36:29;25.60;67.60
19829;DHT22;10075;50.924;4.396;2023-06-14T08:38:56;25.70;67.60
19829;DHT22;10075;50.924;4.396;2023-06-14T08:41:23;25.80;67.40
19829;DHT22;10075;50.924;4.396;2023-06-14T08:43:51;25.80;67.50
19829;DHT22;10075;50.924;4.396;2023-06-14T08:46:18;25.90;66.90
19829;DHT22;10075;50.924;4.396;2023-06-14T08:48:49;26.10;66.20
19829;DHT22;10075;50.924;4.396;2023-06-14T08:51:18;26.10;66.00
19829;DHT22;10075;50.924;4.396;2023-06-14T08:53:52;26.00;66.40
19829;DHT22;10075;50.924;4.396;2023-06-14T08:56:20;26.10;66.00
19829;DHT22;10075;50.924;4.396;2023-06-14T08:58:48;26.20;66.60
19829;DHT22;10075;50.924;4.396;2023-06-14T09:01:16;26.30;66.10
19829;DHT22;10075;50.924;4.396;2023-06-14T09:03:43;26.30;67.00
19829;DHT22;10075;50.924;4.396;2023-06-14T09:06:11;26.30;67.10
19829;DHT22;10075;50.924;4.396;2023-06-14T09:08:42;26.30;67.20
19829;DHT22;10075;50.924;4.396;2023-06-14T09:11:11;26.40;67.60
19829;DHT22;10075;50.924;4.396;2023-06-14T09:13:40;26.30;67.10
19829;DHT22;10075;50.924;4.396;2023-06-14T09:16:07;26.30;66.70
19829;DHT22;10075;50.924;4.396;2023-06-14T09:18:35;26.40;66.30
19829;DHT22;10075;50.924;4.396;2023-06-14T09:21:02;26.30;66.60
19829;DHT22;10075;50.924;4.396;2023-06-14T09:23:33;26.30;67.10
19829;DHT22;10075;50.924;4.396;2023-06-14T09:26:06;26.40;66.70
19829;DHT22;10075;50.924;4.396;2023-06-14T09:28:34;26.50;67.00
19829;DHT22;10075;50.924;4.396;2023-06-14T09:31:01;26.50;66.20
19829;DHT22;10075;50.924;4.396;2023-06-14T09:33:28;26.60;64.70
19829;DHT22;10075;50.924;4.396;2023-06-14T09:35:55;26.60;63.30
19829;DHT22;10075;50.924;4.396;2023-06-14T09:38:22;26.60;64.10
19829;DHT22;10075;50.924;4.396;2023-06-14T09:40:51;26.70;63.90
19829;DHT22;10075;50.924;4.396;2023-06-14T09:43:19;26.80;63.60
19829;DHT22;10075;50.924;4.396;2023-06-14T09:45:48;26.90;62.70
19829;DHT22;10075;50.924;4.396;2023-06-14T09:48:15;27.00;61.60
19829;DHT22;10075;50.924;4.396;2023-06-14T09:50:45;27.10;61.60
19829;DHT22;10075;50.924;4.396;2023-06-14T09:53:13;27.10;61.90
19829;DHT22;10075;50.924;4.396;2023-06-14T09:55:41;27.10;62.20
19829;DHT22;10075;50.924;4.396;2023-06-14T09:58:10;27.20;61.70
19829;DHT22;10075;50.924;4.396;2023-06-14T10:00:39;27.30;61.70
19829;DHT22;10075;50.924;4.396;2023-06-14T10:03:12;27.30;60.00
19829;DHT22;10075;50.924;4.396;2023-06-14T10:05:43;27.40;60.00
19829;DHT22;10075;50.924;4.396;2023-06-14T10:08:13;27.60;60.20
19829;DHT22;10075;50.924;4.396;2023-06-14T10:10:42;27.60;59.30
19829;DHT22;10075;50.924;4.396;2023-06-14T10:13:10;27.60;60.00
19829;DHT22;10075;50.924;4.396;2023-06-14T10:15:42;27.70;58.90
19829;DHT22;10075;50.924;4.396;2023-06-14T10:18:19;27.80;57.80
19829;DHT22;10075;50.924;4.396;2023-06-14T10:20:53;28.00;56.30
19829;DHT22;10075;50.924;4.396;2023-06-14T10:23:24;28.00;55.90
19829;DHT22;10075;50.924;4.396;2023-06-14T10:25:56;27.90;56.70
19829;DHT22;10075;50.924;4.396;2023-06-14T10:28:24;28.00;56.90
19829;DHT22;10075;50.924;4.396;2023-06-14T10:31:07;28.00;55.60
19829;DHT22;10075;50.924;4.396;2023-06-14T10:33:35;28.00;54.90
19829;DHT22;10075;50.924;4.396;2023-06-14T10:36:24;28.00;54.90
19829;DHT22;10075;50.924;4.396;2023-06-14T10:39:01;28.20;54.80
19829;DHT22;10075;50.924;4.396;2023-06-14T10:41:28;28.30;55.30
19829;DHT22;10075;50.924;4.396;2023-06-14T10:44:40;28.30;56.30
19829;DHT22;10075;50.924;4.396;2023-06-14T10:47:09;28.40;56.10
19829;DHT22;10075;50.924;4.396;2023-06-14T10:49:39;28.40;55.80
19829;DHT22;10075;50.924;4.396;2023-06-14T10:52:11;28.50;55.60
19829;DHT22;10075;50.924;4.396;2023-06-14T10:57:39;28.70;54.50
19829;DHT22;10075;50.924;4.396;2023-06-14T11:00:09;28.60;53.70
19829;DHT22;10075;50.924;4.396;2023-06-14T11:03:29;28.70;53.60
19829;DHT22;10075;50.924;4.396;2023-06-14T11:06:13;28.70;53.60
19829;DHT22;10075;50.924;4.396;2023-06-14T11:09:06;28.70;53.00
19829;DHT22;10075;50.924;4.396;2023-06-14T11:11:38;28.80;53.30
19829;DHT22;10075;50.924;4.396;2023-06-14T11:14:08;28.80;53.60
19829;DHT22;10075;50.924;4.396;2023-06-14T11:16:38;28.90;51.40
19829;DHT22;10075;50.924;4.396;2023-06-14T11:19:06;28.80;51.90
19829;DHT22;10075;50.924;4.396;2023-06-14T11:21:33;28.80;52.10
19829;DHT22;10075;50.924;4.396;2023-06-14T11:24:00;28.80;53.20
19829;DHT22;10075;50.924;4.396;2023-06-14T11:26:28;28.80;52.40
19829;DHT22;10075;50.924;4.396;2023-06-14T11:28:56;28.80;52.50
19829;DHT22;10075;50.924;4.396;2023-06-14T11:31:24;28.80;53.10
19829;DHT22;10075;50.924;4.396;2023-06-14T11:33:53;28.80;53.60
19829;DHT22;10075;50.924;4.396;2023-06-14T11:36:21;28.90;53.20
19829;DHT22;10075;50.924;4.396;2023-06-14T11:38:48;28.90;52.90
19829;DHT22;10075;50.924;4.396;2023-06-14T11:41:16;28.90;53.00
19829;DHT22;10075;50.924;4.396;2023-06-14T11:43:43;28.90;53.60
19829;DHT22;10075;50.924;4.396;2023-06-14T11:46:13;29.00;54.00
19829;DHT22;10075;50.924;4.396;2023-06-14T11:48:42;29.20;52.90
19829;DHT22;10075;50.924;4.396;2023-06-14T11:51:10;29.10;52.70
19829;DHT22;10075;50.924;4.396;2023-06-14T11:53:38;29.10;51.70
19829;DHT22;10075;50.924;4.396;2023-06-14T11:56:05;29.00;51.70
19829;DHT22;10075;50.924;4.396;2023-06-14T11:58:32;28.90;52.50
19829;DHT22;10075;50.924;4.396;2023-06-14T12:00:59;28.90;52.80
19829;DHT22;10075;50.924;4.396;2023-06-14T12:03:28;29.00;53.20
19829;DHT22;10075;50.924;4.396;2023-06-14T12:06:03;29.10;52.10
19829;DHT22;10075;50.924;4.396;2023-06-14T12:08:35;29.30;51.80
19829;DHT22;10075;50.924;4.396;2023-06-14T12:11:05;29.50;51.80
19829;DHT22;10075;50.924;4.396;2023-06-14T12:13:34;29.50;51.00
19829;DHT22;10075;50.924;4.396;2023-06-14T12:16:02;29.40;51.30
19829;DHT22;10075;50.924;4.396;2023-06-14T12:18:34;29.30;52.00
19829;DHT22;10075;50.924;4.396;2023-06-14T12:21:02;29.30;51.10
19829;DHT22;10075;50.924;4.396;2023-06-14T12:23:43;29.30;52.10
19829;DHT22;10075;50.924;4.396;2023-06-14T12:26:12;29.40;51.00
19829;DHT22;10075;50.924;4.396;2023-06-14T12:28:40;29.40;51.60
19829;DHT22;10075;50.924;4.396;2023-06-14T12:31:07;29.50;51.30
19829;DHT22;10075;50.924;4.396;2023-06-14T12:33:34;29.50;51.80
19829;DHT22;10075;50.924;4.396;2023-06-14T12:36:03;29.70;51.90
19829;DHT22;10075;50.924;4.396;2023-06-14T12:38:31;29.80;51.50
19829;DHT22;10075;50.924;4.396;2023-06-14T12:40:59;29.80;51.30
19829;DHT22;10075;50.924;4.396;2023-06-14T12:43:27;29.90;51.70
19829;DHT22;10075;50.924;4.396;2023-06-14T12:45:54;29.90;51.40
19829;DHT22;10075;50.924;4.396;2023-06-14T12:48:21;30.10;51.40
19829;DHT22;10075;50.924;4.396;2023-06-14T12:50:48;30.20;51.40
19829;DHT22;10075;50.924;4.396;2023-06-14T12:53:15;30.10;50.20
19829;DHT22;10075;50.924;4.396;2023-06-14T12:55:42;30.00;51.40
19829;DHT22;10075;50.924;4.396;2023-06-14T12:58:11;30.00;51.30
19829;DHT22;10075;50.924;4.396;2023-06-14T13:00:39;30.10;51.00
19829;DHT22;10075;50.924;4.396;2023-06-14T13:03:06;30.20;51.20
19829;DHT22;10075;50.924;4.396;2023-06-14T13:05:33;30.30;50.40
19829;DHT22;10075;50.924;4.396;2023-06-14T13:08:01;30.20;50.80
19829;DHT22;10075;50.924;4.396;2023-06-14T13:10:28;30.20;50.50
19829;DHT22;10075;50.924;4.396;2023-06-14T13:12:55;30.20;50.50
19829;DHT22;10075;50.924;4.396;2023-06-14T13:15:25;30.20;50.60
19829;DHT22;10075;50.924;4.396;2023-06-14T13:17:52;30.20;49.40
19829;DHT22;10075;50.924;4.396;2023-06-14T13:20:19;30.20;50.10
19829;DHT22;10075;50.924;4.396;2023-06-14T13:22:47;30.20;49.70
19829;DHT22;10075;50.924;4.396;2023-06-14T13:25:14;30.10;49.00
19829;DHT22;10075;50.924;4.396;2023-06-14T13:27:41;30.10;50.50
19829;DHT22;10075;50.924;4.396;2023-06-14T13:30:08;30.10;50.20
19829;DHT22;10075;50.924;4.396;2023-06-14T13:32:37;30.20;49.80
19829;DHT22;10075;50.924;4.396;2023-06-14T13:35:05;30.20;49.60
19829;DHT22;10075;50.924;4.396;2023-06-14T13:37:32;30.20;49.90
19829;DHT22;10075;50.924;4.396;2023-06-14T13:39:59;30.30;49.70
19829;DHT22;10075;50.924;4.396;2023-06-14T13:42:28;30.30;48.60
19829;DHT22;10075;50.924;4.396;2023-06-14T13:44:58;30.40;48.20
19829;DHT22;10075;50.924;4.396;2023-06-14T13:47:25;30.40;48.60
19829;DHT22;10075;50.924;4.396;2023-06-14T13:49:53;30.40;49.20
19829;DHT22;10075;50.924;4.396;2023-06-14T13:52:20;30.40;49.00
19829;DHT22;10075;50.924;4.396;2023-06-14T13:54:48;30.40;48.70
19829;DHT22;10075;50.924;4.396;2023-06-14T13:57:15;30.40;48.30
19829;DHT22;10075;50.924;4.396;2023-06-14T13:59:42;30.40;48.60
19829;DHT22;10075;50.924;4.396;2023-06-14T14:02:10;30.60;48.30
19829;DHT22;10075;50.924;4.396;2023-06-14T14:04:37;30.60;47.90
19829;DHT22;10075;50.924;4.396;2023-06-14T14:07:06;30.60;47.40
19829;DHT22;10075;50.924;4.396;2023-06-14T14:09:34;30.60;47.60
19829;DHT22;10075;50.924;4.396;2023-06-14T14:12:03;30.70;47.60
19829;DHT22;10075;50.924;4.396;2023-06-14T14:14:31;30.80;47.10
19829;DHT22;10075;50.924;4.396;2023-06-14T14:16:59;30.80;45.90
19829;DHT22;10075;50.924;4.396;2023-06-14T14:19:26;30.90;46.30
19829;DHT22;10075;50.924;4.396;2023-06-14T14:21:52;31.40;45.70
19829;DHT22;10075;50.924;4.396;2023-06-14T14:24:21;32.70;45.00
19829;DHT22;10075;50.924;4.396;2023-06-14T14:26:48;34.60;43.10
19829;DHT22;10075;50.924;4.396;2023-06-14T14:29:17;36.20;40.50
19829;DHT22;10075;50.924;4.396;2023-06-14T14:31:45;38.10;39.90
19829;DHT22;10075;50.924;4.396;2023-06-14T14:34:12;39.90;37.50
19829;DHT22;10075;50.924;4.396;2023-06-14T14:36:39;41.50;36.50
19829;DHT22;10075;50.924;4.396;2023-06-14T14:39:08;42.30;34.70
19829;DHT22;10075;50.924;4.396;2023-06-14T14:41:36;43.20;34.30
19829;DHT22;10075;50.924;4.396;2023-06-14T14:44:04;43.60;33.10
19829;DHT22;10075;50.924;4.396;2023-06-14T14:46:31;43.20;33.00
19829;DHT22;10075;50.924;4.396;2023-06-14T14:48:59;42.50;32.80
19829;DHT22;10075;50.924;4.396;2023-06-14T14:51:26;42.50;32.70
19829;DHT22;10075;50.924;4.396;2023-06-14T14:53:53;42.80;33.10
19829;DHT22;10075;50.924;4.396;2023-06-14T14:56:20;42.80;32.50
19829;DHT22;10075;50.924;4.396;2023-06-14T14:58:49;44.00;32.40
19829;DHT22;10075;50.924;4.396;2023-06-14T15:01:16;43.70;31.80
19829;DHT22;10075;50.924;4.396;2023-06-14T15:03:43;44.40;31.80
19829;DHT22;10075;50.924;4.396;2023-06-14T15:06:11;44.30;31.10
19829;DHT22;10075;50.924;4.396;2023-06-14T15:08:38;43.90;30.70
19829;DHT22;10075;50.924;4.396;2023-06-14T15:11:05;44.20;31.30
19829;DHT22;10075;50.924;4.396;2023-06-14T15:13:32;45.00;30.80
19829;DHT22;10075;50.924;4.396;2023-06-14T15:16:00;46.10;30.10
19829;DHT22;10075;50.924;4.396;2023-06-14T15:18:27;47.00;30.00
19829;DHT22;10075;50.924;4.396;2023-06-14T15:20:54;46.30;29.60
19829;DHT22;10075;50.924;4.396;2023-06-14T15:23:22;45.80;30.30
19829;DHT22;10075;50.924;4.396;2023-06-14T15:25:49;46.20;30.60
19829;DHT22;10075;50.924;4.396;2023-06-14T15:28:17;46.30;30.30
19829;DHT22;10075;50.924;4.396;2023-06-14T15:30:44;46.80;30.20
19829;DHT22;10075;50.924;4.396;2023-06-14T15:33:13;46.40;29.80
19829;DHT22;10075;50.924;4.396;2023-06-14T15:35:40;45.90;30.30
19829;DHT22;10075;50.924;4.396;2023-06-14T15:38:07;45.90;30.50
19829;DHT22;10075;50.924;4.396;2023-06-14T15:40:34;45.90;30.10